createdAt,value
2017-08-26T00:02:23.780Z,90.20
2017-08-26T00:04:52.076Z,89.80
2017-08-26T00:07:20.352Z,89.80
2017-08-26T00:09:48.672Z,89.70
2017-08-26T00:12:16.935Z,89.00
2017-08-26T00:14:45.219Z,88.10
2017-08-26T00:17:13.515Z,88.40
2017-08-26T00:19:41.784Z,88.20
2017-08-26T00:22:10.860Z,89.50
2017-08-26T00:24:39.136Z,89.40
2017-08-26T00:27:07.404Z,89.00
2017-08-26T00:29:35.688Z,89.80
2017-08-26T00:32:03.964Z,89.80
2017-08-26T00:34:32.479Z,90.10
2017-08-26T00:37:00.756Z,90.10
2017-08-26T00:39:29.792Z,90.20
2017-08-26T00:41:58.067Z,90.30
2017-08-26T00:44:26.349Z,89.80
2017-08-26T00:46:54.660Z,89.80
2017-08-26T00:49:22.924Z,89.80
2017-08-26T00:51:51.198Z,90.20
2017-08-26T00:54:19.480Z,90.50
2017-08-26T00:56:47.767Z,90.40
2017-08-26T00:59:16.068Z,90.20
2017-08-26T01:01:44.344Z,90.10
2017-08-26T01:04:12.610Z,90.50
2017-08-26T01:06:40.896Z,90.30
2017-08-26T01:09:09.932Z,89.90
2017-08-26T01:11:38.324Z,89.90
2017-08-26T01:14:06.600Z,89.90
2017-08-26T01:16:35.652Z,90.50
2017-08-26T01:19:04.056Z,90.50
2017-08-26T01:21:32.328Z,90.70
2017-08-26T01:24:00.764Z,90.40
2017-08-26T01:26:29.026Z,90.30
2017-08-26T01:28:57.315Z,90.30
2017-08-26T01:31:26.359Z,90.40
2017-08-26T01:33:54.628Z,90.30
2017-08-26T01:36:22.931Z,90.30
2017-08-26T01:38:51.204Z,90.30
2017-08-26T03:03:17.508Z,90.10
2017-08-26T03:05:45.783Z,90.80
2017-08-26T03:08:14.044Z,91.10
2017-08-26T03:10:42.476Z,91.00
2017-08-26T03:13:10.750Z,91.00
2017-08-26T03:15:39.064Z,90.80
2017-08-26T03:18:07.339Z,90.90
2017-08-26T03:20:35.609Z,90.70
2017-08-26T03:23:03.895Z,90.70
2017-08-26T03:25:32.168Z,90.70
2017-08-26T03:28:00.483Z,90.70
2017-08-26T03:30:28.749Z,90.60
2017-08-26T03:32:57.011Z,90.00
2017-08-26T03:35:25.303Z,89.20
2017-08-26T03:37:53.571Z,89.20
2017-08-26T03:40:21.868Z,89.10
2017-08-26T03:42:50.140Z,89.10
2017-08-26T03:45:18.404Z,89.60
2017-08-26T03:47:46.691Z,90.10
2017-08-26T03:50:14.956Z,90.30
2017-08-26T03:52:43.438Z,90.10
2017-08-26T03:55:11.715Z,90.30
2017-08-26T03:57:40.752Z,90.40
2017-08-26T04:00:09.171Z,90.40
2017-08-26T04:02:37.431Z,90.40
2017-08-26T04:05:05.747Z,90.10
2017-08-26T04:07:34.017Z,90.20
2017-08-26T04:10:02.286Z,90.10
2017-08-26T04:12:30.581Z,90.10
2017-08-26T04:14:58.846Z,90.30
2017-08-26T04:17:27.276Z,90.40
2017-08-26T04:19:55.544Z,90.60
2017-08-26T04:22:23.823Z,90.60
2017-08-26T04:24:52.871Z,90.50
2017-08-26T04:27:21.127Z,90.40
2017-08-26T04:29:49.447Z,90.60
2017-08-26T04:32:17.716Z,90.60
2017-08-26T04:34:45.984Z,90.80
2017-08-26T04:37:14.259Z,90.90
2017-08-26T04:39:42.528Z,90.90
2017-08-26T04:42:10.940Z,90.80
2017-08-26T04:44:39.208Z,91.00
2017-08-26T04:47:07.472Z,91.10
2017-08-26T04:49:35.768Z,90.90
2017-08-26T04:52:04.052Z,91.00
2017-08-26T04:54:32.364Z,91.00
2017-08-26T04:57:00.639Z,91.00
2017-08-26T04:59:28.903Z,90.90
2017-08-26T05:01:57.187Z,90.90
2017-08-26T05:04:25.455Z,90.90
2017-08-26T05:06:53.751Z,90.80
2017-08-26T05:09:22.015Z,90.90
2017-08-26T05:11:50.289Z,90.80
2017-08-26T05:14:18.579Z,90.60
2017-08-26T05:16:47.223Z,90.60
2017-08-26T05:19:15.541Z,90.60
2017-08-26T05:21:43.808Z,90.60
2017-08-26T05:24:12.840Z,90.50
2017-08-26T05:26:41.124Z,90.40
2017-08-26T05:29:09.396Z,90.50
2017-08-26T05:31:37.709Z,90.50
2017-08-26T05:34:06.352Z,90.70
2017-08-26T05:36:34.625Z,91.10
2017-08-26T05:39:02.915Z,91.00
2017-08-26T05:41:31.379Z,91.00
2017-08-26T05:43:59.699Z,91.10
2017-08-26T05:46:27.968Z,91.10
2017-08-26T05:48:57.003Z,90.60
2017-08-26T05:51:25.283Z,90.50
2017-08-26T05:53:53.557Z,90.30
2017-08-26T05:56:22.636Z,90.40
2017-08-26T05:58:50.909Z,90.40
2017-08-26T06:01:19.184Z,90.10
2017-08-26T06:03:47.846Z,89.90
2017-08-26T06:06:16.124Z,90.00
2017-08-26T06:08:44.443Z,90.00
2017-08-26T06:11:12.711Z,90.00
2017-08-26T06:13:40.975Z,90.00
2017-08-26T06:16:09.256Z,90.10
2017-08-26T06:18:37.532Z,89.00
2017-08-26T06:21:05.820Z,88.30
2017-08-26T06:23:34.089Z,87.30
2017-08-26T06:26:02.364Z,87.50
2017-08-26T06:28:30.660Z,86.90
2017-08-26T06:30:59.699Z,87.30
2017-08-26T06:33:28.024Z,87.20
2017-08-26T06:35:56.292Z,85.50
2017-08-26T06:38:24.559Z,81.70
2017-08-26T06:40:52.839Z,83.40
2017-08-26T06:43:21.108Z,82.40
2017-08-26T06:45:49.409Z,82.00
2017-08-26T06:48:18.964Z,78.00
2017-08-26T06:50:47.211Z,77.50
2017-08-26T06:53:15.509Z,81.20
2017-08-26T06:55:43.804Z,82.50
2017-08-26T06:58:12.273Z,78.00
2017-08-26T07:00:40.548Z,79.90
2017-08-26T07:03:08.808Z,80.10
2017-08-26T07:05:37.100Z,78.30
2017-08-26T07:08:05.368Z,75.10
2017-08-26T07:10:33.656Z,77.20
2017-08-26T07:13:01.936Z,73.40
2017-08-26T07:15:30.252Z,73.50
2017-08-26T07:17:58.516Z,73.50
2017-08-26T07:20:26.820Z,73.50
2017-08-26T07:22:55.117Z,75.70
2017-08-26T07:25:23.423Z,76.20
2017-08-26T07:27:51.873Z,76.50
2017-08-26T07:30:20.910Z,74.10
2017-08-26T07:32:49.208Z,73.90
2017-08-26T07:35:17.607Z,74.00
2017-08-26T07:37:45.888Z,75.30
2017-08-26T07:40:14.221Z,70.90
2017-08-26T07:42:42.616Z,72.90
2017-08-26T07:45:10.882Z,72.30
2017-08-26T07:47:39.180Z,70.40
2017-08-26T07:50:07.456Z,72.90
2017-08-26T07:52:36.519Z,68.10
2017-08-26T07:55:04.800Z,68.10
2017-08-26T07:57:33.073Z,69.30
2017-08-26T08:00:02.437Z,70.30
2017-08-26T08:02:31.476Z,69.20
2017-08-26T08:04:59.788Z,69.10
2017-08-26T08:07:28.064Z,68.10
2017-08-26T08:09:56.355Z,68.80
2017-08-26T08:12:24.640Z,69.00
2017-08-26T08:14:53.035Z,67.90
2017-08-26T08:17:21.352Z,68.20
2017-08-26T08:19:49.652Z,68.30
2017-08-26T08:22:17.912Z,67.10
2017-08-26T08:24:46.981Z,67.80
2017-08-26T08:27:16.015Z,64.50
2017-08-26T08:29:44.348Z,64.50
2017-08-26T08:32:12.624Z,63.40
2017-08-26T08:34:40.901Z,62.30
2017-08-26T08:37:09.193Z,62.90
2017-08-26T08:39:37.467Z,61.80
2017-08-26T08:42:06.274Z,63.40
2017-08-26T08:44:34.532Z,61.50
2017-08-26T08:47:02.812Z,60.10
2017-08-26T08:49:31.102Z,62.40
2017-08-26T08:51:59.390Z,60.10
2017-08-26T08:54:28.475Z,57.60
2017-08-26T08:56:56.785Z,57.60
2017-08-26T08:59:25.069Z,59.50
2017-08-26T09:01:53.374Z,57.60
2017-08-26T09:04:22.136Z,57.70
2017-08-26T09:06:51.200Z,57.90
2017-08-26T09:09:20.245Z,58.40
2017-08-26T09:11:48.543Z,57.90
2017-08-26T09:14:16.833Z,57.00
2017-08-26T09:16:45.860Z,56.40
2017-08-26T09:19:14.153Z,56.40
2017-08-26T09:21:42.424Z,57.30
2017-08-26T09:24:10.823Z,56.60
2017-08-26T09:26:39.185Z,56.10
2017-08-26T09:29:07.452Z,56.50
2017-08-26T09:31:35.749Z,55.20
2017-08-26T09:34:04.016Z,56.40
2017-08-26T09:36:33.310Z,55.10
2017-08-26T09:39:01.596Z,55.10
2017-08-26T09:41:29.868Z,57.00
2017-08-26T09:43:58.159Z,51.90
2017-08-26T09:46:26.431Z,50.40
2017-08-26T09:48:54.916Z,53.00
2017-08-26T09:51:23.959Z,50.30
2017-08-26T09:53:52.219Z,50.20
2017-08-26T09:56:20.504Z,49.20
2017-08-26T09:58:48.772Z,49.20
2017-08-26T10:01:18.663Z,49.70
2017-08-26T10:03:46.932Z,49.70
2017-08-26T10:06:15.208Z,48.10
2017-08-26T10:08:44.263Z,48.00
2017-08-26T10:11:12.542Z,47.90
2017-08-26T10:13:41.612Z,47.70
2017-08-26T10:16:09.877Z,47.70
2017-08-26T10:18:38.149Z,47.20
2017-08-26T10:21:06.440Z,47.80
2017-08-26T10:23:34.716Z,48.90
2017-08-26T10:26:03.036Z,49.90
2017-08-26T10:28:32.073Z,47.00
2017-08-26T10:31:00.372Z,46.60
2017-08-26T10:33:29.428Z,46.60
2017-08-26T10:35:57.936Z,46.60
2017-08-26T10:38:26.247Z,47.80
2017-08-26T10:40:54.512Z,48.70
2017-08-26T10:43:22.804Z,49.70
2017-08-26T10:45:51.084Z,44.70
2017-08-26T10:48:19.360Z,45.20
2017-08-26T10:50:47.790Z,44.20
2017-08-26T10:53:16.065Z,44.50
2017-08-26T10:55:45.106Z,46.50
2017-08-26T10:58:13.388Z,46.30
2017-08-26T11:00:42.415Z,45.50
2017-08-26T11:03:10.725Z,45.50
2017-08-26T11:05:38.996Z,44.80
2017-08-26T11:08:08.032Z,43.50
2017-08-26T11:10:36.320Z,43.40
2017-08-26T11:13:04.596Z,41.80
2017-08-26T11:15:33.676Z,42.40
2017-08-26T11:18:02.712Z,42.70
2017-08-26T11:20:30.967Z,42.70
2017-08-26T11:22:59.416Z,43.00
2017-08-26T11:25:27.691Z,41.40
2017-08-26T11:27:56.024Z,42.90
2017-08-26T11:30:24.291Z,40.90
2017-08-26T11:32:52.587Z,44.50
2017-08-26T11:35:20.867Z,39.50
2017-08-26T11:37:49.895Z,39.30
2017-08-26T11:40:18.435Z,41.20
2017-08-26T11:42:46.691Z,39.70
2017-08-26T11:45:15.044Z,40.10
2017-08-26T11:47:43.339Z,41.40
2017-08-26T11:50:11.603Z,41.70
2017-08-26T11:52:39.913Z,41.40
2017-08-26T11:55:08.172Z,40.10
2017-08-26T11:57:36.444Z,40.30
2017-08-26T12:00:04.728Z,40.70
2017-08-26T12:02:33.768Z,39.00
2017-08-26T12:05:02.090Z,39.00
2017-08-26T12:07:30.364Z,38.80
2017-08-26T12:09:58.637Z,38.20
2017-08-26T12:15:01.680Z,39.20
2017-08-26T12:17:29.987Z,40.50
2017-08-26T12:19:58.264Z,37.20
2017-08-26T12:22:26.540Z,42.20
2017-08-26T12:24:54.836Z,39.40
2017-08-26T12:27:23.091Z,37.10
2017-08-26T12:29:51.399Z,38.70
2017-08-26T12:32:19.672Z,37.60
2017-08-26T12:34:47.949Z,36.20
2017-08-26T12:37:16.236Z,37.70
2017-08-26T12:39:44.577Z,37.60
2017-08-26T12:42:12.908Z,36.20
2017-08-26T12:44:41.180Z,37.60
2017-08-26T12:47:09.448Z,36.80
2017-08-26T12:49:37.733Z,35.30
2017-08-26T12:52:06.763Z,35.40
2017-08-26T12:54:35.075Z,35.30
2017-08-26T12:57:04.111Z,36.50
2017-08-26T12:59:32.375Z,36.50
2017-08-26T13:02:00.664Z,35.10
2017-08-26T13:04:28.942Z,35.20
2017-08-26T13:06:57.243Z,34.60
2017-08-26T13:09:25.517Z,34.50
2017-08-26T13:11:53.962Z,35.50
2017-08-26T13:14:22.248Z,34.20
2017-08-26T13:16:50.525Z,34.70
2017-08-26T13:19:18.836Z,35.70
2017-08-26T13:21:47.107Z,34.50
2017-08-26T13:24:15.376Z,34.00
2017-08-26T13:26:43.668Z,33.10
2017-08-26T13:29:11.941Z,34.80
2017-08-26T13:31:40.248Z,35.70
2017-08-26T13:34:08.516Z,35.90
2017-08-26T13:36:36.792Z,35.10
2017-08-26T13:39:05.082Z,34.00
2017-08-26T13:41:33.348Z,32.60
2017-08-26T13:44:01.809Z,34.30
2017-08-26T13:46:30.085Z,33.30
2017-08-26T13:48:59.107Z,35.90
2017-08-26T13:51:27.405Z,35.70
2017-08-26T13:53:55.698Z,35.30
2017-08-26T13:56:24.015Z,38.20
2017-08-26T13:58:52.283Z,36.40
2017-08-26T14:01:20.567Z,36.90
2017-08-26T14:03:48.906Z,35.90
2017-08-26T14:06:17.164Z,37.60
2017-08-26T14:08:45.480Z,39.30
2017-08-26T14:11:13.747Z,37.10
2017-08-26T14:13:42.023Z,35.00
2017-08-26T14:16:10.324Z,37.90
2017-08-26T14:18:38.588Z,38.10
2017-08-26T14:21:07.985Z,34.10
2017-08-26T14:23:36.344Z,33.90
2017-08-26T14:26:04.608Z,33.00
2017-08-26T14:28:32.890Z,32.70
2017-08-26T14:31:01.184Z,32.30
2017-08-26T14:33:29.498Z,31.10
2017-08-26T14:35:57.777Z,31.70
2017-08-26T14:38:26.047Z,31.70
2017-08-26T14:40:54.352Z,27.90
2017-08-26T14:43:22.631Z,28.40
2017-08-26T14:45:50.934Z,27.60
2017-08-26T14:48:19.200Z,29.20
2017-08-26T14:50:47.467Z,28.50
2017-08-26T14:53:15.760Z,28.30
2017-08-26T14:55:44.024Z,29.50
2017-08-26T14:58:12.355Z,29.20
2017-08-26T15:00:40.632Z,29.30
2017-08-26T15:03:08.891Z,30.40
2017-08-26T15:05:37.171Z,27.30
2017-08-26T15:08:05.439Z,29.70
2017-08-26T15:10:33.922Z,27.70
2017-08-26T15:13:02.969Z,28.80
2017-08-26T15:15:31.244Z,28.80
2017-08-26T15:17:59.541Z,28.70
2017-08-26T15:20:27.824Z,28.90
2017-08-26T15:22:56.115Z,29.30
2017-08-26T15:25:24.387Z,29.20
2017-08-26T15:27:52.655Z,32.50
2017-08-26T15:30:20.948Z,29.40
2017-08-26T15:32:49.285Z,30.70
2017-08-26T15:35:17.612Z,30.30
2017-08-26T15:37:45.877Z,30.00
2017-08-26T15:40:14.156Z,30.50
2017-08-26T15:42:42.436Z,30.60
2017-08-26T15:45:11.468Z,31.10
2017-08-26T15:47:39.959Z,31.10
2017-08-26T15:50:09.104Z,33.60
2017-08-26T15:52:37.377Z,32.60
2017-08-26T15:55:05.709Z,32.70
2017-08-26T15:57:33.982Z,33.90
2017-08-26T16:00:02.338Z,34.60
2017-08-26T16:02:30.612Z,33.60
2017-08-26T16:04:58.884Z,34.30
2017-08-26T16:07:27.920Z,37.40
2017-08-26T16:09:56.187Z,35.30
2017-08-26T16:12:24.471Z,36.50
2017-08-26T16:14:52.737Z,34.90
2017-08-26T16:17:21.000Z,34.80
2017-08-26T16:19:49.300Z,36.20
2017-08-26T16:22:17.573Z,37.80
2017-08-26T16:24:45.895Z,36.80
2017-08-26T16:27:14.159Z,37.50
2017-08-26T16:29:42.436Z,36.40
2017-08-26T16:32:10.719Z,36.20
2017-08-26T16:34:38.987Z,35.30
2017-08-26T16:37:07.395Z,35.50
2017-08-26T16:39:35.918Z,36.70
2017-08-26T16:42:04.965Z,38.00
2017-08-26T16:44:33.243Z,37.90
2017-08-26T16:47:01.525Z,38.20
2017-08-26T16:49:30.704Z,38.80
2017-08-26T16:51:59.745Z,39.40
2017-08-26T16:54:28.015Z,39.40
2017-08-26T16:56:56.311Z,39.00
2017-08-26T16:59:24.584Z,39.70
2017-08-26T17:01:53.228Z,39.60
2017-08-26T17:04:21.520Z,41.20
2017-08-26T17:06:49.776Z,40.80
2017-08-26T17:09:18.086Z,40.80
2017-08-26T17:11:46.347Z,40.80
2017-08-26T17:14:14.647Z,41.00
2017-08-26T17:16:42.924Z,41.20
2017-08-26T17:19:11.464Z,41.60
2017-08-26T17:21:39.767Z,41.70
2017-08-26T17:24:08.060Z,42.30
2017-08-26T17:26:36.344Z,42.20
2017-08-26T17:29:04.628Z,42.20
2017-08-26T17:31:32.896Z,42.90
2017-08-26T17:34:01.970Z,42.10
2017-08-26T17:36:30.245Z,42.10
2017-08-26T17:38:58.540Z,42.70
2017-08-26T17:41:26.871Z,42.70
2017-08-26T17:43:55.119Z,43.20
2017-08-26T17:46:23.403Z,44.40
2017-08-26T17:48:51.700Z,44.00
2017-08-26T17:51:20.016Z,43.60
2017-08-26T17:53:48.285Z,43.60
2017-08-26T17:56:16.571Z,43.80
2017-08-26T17:58:44.848Z,45.10
2017-08-26T18:01:13.148Z,45.00
2017-08-26T18:03:41.436Z,46.20
2017-08-26T18:06:09.728Z,45.10
2017-08-26T18:08:38.008Z,44.70
2017-08-26T18:13:41.000Z,44.90
2017-08-26T18:16:09.439Z,46.00
2017-08-26T18:18:37.700Z,46.60
2017-08-26T18:21:05.977Z,46.30
2017-08-26T18:23:34.272Z,45.60
2017-08-26T18:26:02.528Z,47.50
2017-08-26T18:28:31.081Z,49.00
2017-08-26T18:30:59.375Z,49.30
2017-08-26T18:33:27.671Z,49.00
2017-08-26T18:35:55.955Z,49.50
2017-08-26T18:38:24.224Z,49.60
2017-08-26T18:40:52.569Z,50.00
2017-08-26T18:43:21.599Z,50.10
2017-08-26T18:45:49.875Z,50.10
2017-08-26T18:48:18.273Z,50.50
2017-08-26T18:50:47.304Z,52.00
2017-08-26T18:53:15.613Z,51.80
2017-08-26T18:55:44.647Z,53.30
2017-08-26T18:58:12.924Z,53.20
2017-08-26T19:00:41.211Z,53.20
2017-08-26T19:03:10.249Z,54.00
2017-08-26T19:05:38.539Z,54.00
2017-08-26T19:08:06.816Z,54.60
2017-08-26T19:10:35.863Z,55.80
2017-08-26T19:13:04.147Z,55.70
2017-08-26T19:15:32.428Z,56.00
2017-08-26T19:18:01.504Z,57.50
2017-08-26T19:20:29.755Z,57.50
2017-08-26T19:22:58.791Z,57.90
2017-08-26T19:25:27.096Z,57.90
2017-08-26T19:27:55.366Z,57.90
2017-08-26T19:30:23.667Z,57.90
2017-08-26T19:32:51.995Z,59.20
2017-08-26T19:35:21.029Z,60.00
2017-08-26T19:37:49.328Z,60.00
2017-08-26T19:40:18.383Z,60.10
2017-08-26T19:42:46.675Z,60.00
2017-08-26T19:45:14.976Z,59.80
2017-08-26T19:47:43.289Z,61.70
2017-08-26T19:50:12.370Z,61.50
2017-08-26T19:52:40.628Z,61.50
2017-08-26T19:55:09.692Z,62.50
2017-08-26T19:57:38.158Z,62.40
2017-08-26T20:00:06.570Z,62.40
2017-08-26T20:02:34.851Z,61.80
2017-08-26T20:05:03.164Z,62.40
2017-08-26T20:07:32.363Z,63.30
2017-08-26T20:10:01.404Z,63.40
2017-08-26T20:12:30.164Z,63.30
2017-08-26T20:14:58.426Z,63.90
2017-08-26T20:17:26.707Z,64.10
2017-08-26T20:19:55.072Z,64.30
2017-08-26T20:22:23.351Z,64.90
2017-08-26T20:24:51.643Z,65.20
2017-08-26T20:27:19.928Z,65.80
2017-08-26T20:29:48.219Z,65.90
2017-08-26T20:32:17.267Z,65.20
2017-08-26T20:34:46.349Z,65.90
2017-08-26T20:37:14.615Z,65.80
2017-08-26T20:39:42.896Z,65.90
2017-08-26T20:42:11.191Z,66.70
2017-08-26T20:44:39.475Z,68.00
2017-08-26T20:47:07.779Z,67.60
2017-08-26T20:49:36.063Z,68.90
2017-08-26T20:54:39.080Z,68.50
2017-08-26T20:57:07.432Z,69.20
2017-08-26T20:59:35.713Z,69.30
2017-08-26T21:02:04.812Z,69.60
2017-08-26T21:04:33.100Z,69.80
2017-08-26T21:07:02.153Z,70.00
2017-08-26T21:09:30.459Z,70.00
2017-08-26T21:11:58.733Z,70.40
2017-08-26T21:14:27.024Z,70.00
2017-08-26T21:16:55.296Z,70.60
2017-08-26T21:19:23.604Z,70.90
2017-08-26T21:21:51.880Z,71.30
2017-08-26T21:24:20.164Z,71.60
2017-08-26T21:26:48.455Z,71.60
2017-08-26T21:29:16.735Z,71.80
2017-08-26T21:31:45.032Z,71.50
2017-08-26T21:34:13.315Z,72.30
2017-08-26T21:36:41.604Z,72.40
2017-08-26T21:39:09.883Z,73.20
2017-08-26T21:41:38.962Z,74.20
2017-08-26T21:44:08.004Z,74.20
2017-08-26T21:46:36.288Z,74.10
2017-08-26T21:49:05.348Z,74.80
2017-08-26T21:51:33.621Z,74.10
2017-08-26T21:54:01.928Z,74.80
2017-08-26T21:56:30.240Z,74.10
2017-08-26T21:58:58.515Z,74.80
2017-08-26T22:01:27.591Z,75.30
2017-08-26T22:03:55.877Z,75.30
2017-08-26T22:06:24.151Z,75.50
2017-08-26T22:08:52.459Z,76.20
2017-08-26T22:11:21.021Z,76.30
2017-08-26T22:13:49.291Z,76.90
2017-08-26T22:16:17.608Z,77.60
2017-08-26T22:18:45.883Z,77.60
2017-08-26T22:21:14.396Z,78.70
2017-08-26T22:23:44.175Z,77.40
2017-08-26T22:26:12.477Z,77.30
2017-08-26T22:28:40.780Z,77.30
2017-08-26T22:31:09.048Z,77.60
2017-08-26T22:33:37.370Z,77.40
2017-08-26T22:36:05.635Z,77.00
2017-08-26T22:38:33.918Z,77.50
2017-08-26T22:41:02.212Z,77.70
2017-08-26T22:43:30.496Z,78.60
2017-08-26T22:45:59.571Z,79.10
2017-08-26T22:48:28.636Z,79.60
2017-08-26T22:50:56.912Z,79.50
2017-08-26T22:53:25.375Z,80.00
2017-08-26T22:55:53.647Z,80.50
2017-08-26T22:58:22.736Z,82.00
2017-08-26T23:00:51.012Z,81.80
2017-08-26T23:03:19.299Z,82.20
2017-08-26T23:05:48.569Z,81.30
2017-08-26T23:08:16.917Z,81.00
2017-08-26T23:10:45.215Z,80.80
2017-08-26T23:13:13.491Z,80.70
2017-08-26T23:15:41.813Z,81.20
2017-08-26T23:18:10.096Z,81.30
2017-08-26T23:20:38.393Z,82.20
2017-08-26T23:23:06.680Z,82.80
2017-08-26T23:25:34.956Z,81.90
2017-08-26T23:28:03.380Z,81.30
2017-08-26T23:30:32.450Z,82.00
2017-08-26T23:33:00.715Z,82.00
2017-08-26T23:35:29.017Z,82.00
2017-08-26T23:37:57.305Z,82.80
2017-08-26T23:40:25.606Z,82.30
2017-08-26T23:42:53.879Z,81.90
2017-08-26T23:45:22.952Z,82.60
2017-08-26T23:47:51.244Z,82.50
2017-08-26T23:50:20.313Z,83.30
2017-08-26T23:52:48.600Z,83.30
2017-08-26T23:55:16.900Z,83.40
2017-08-26T23:57:45.180Z,83.40
